Time;durP1;ratioP1;P1;durP2;ratioP2;P2;SDS_P1;SDS_P2;PMS_P1;PMS_P2;Temp;Humidity;BMP_temperature;BMP_pressure;BME280_temperature;BME280_humidity;BME280_pressure;Samples;Min_cycle;Max_cycle;Signal;HPM_P1;HPM_P2
2022/01/12 00:02:04;;;;;;;67.43;24.92;;;6.80;99.90;;;;;;5108414;27;20126;-70
2022/01/12 00:04:30;;;;;;;58.28;25.33;;;6.40;99.90;;;;;;5123113;27;20039;-70
2022/01/12 00:06:56;;;;;;;54.55;23.67;;;6.10;99.90;;;;;;5124561;27;20039;-71
2022/01/12 00:09:21;;;;;;;59.25;23.52;;;6.60;99.90;;;;;;5123455;27;20675;-70
2022/01/12 00:11:47;;;;;;;53.55;23.15;;;6.60;99.90;;;;;;5122738;27;20491;-72
2022/01/12 00:14:13;;;;;;;57.42;23.50;;;6.40;99.90;;;;;;5124102;27;20078;-71
2022/01/12 00:16:40;;;;;;;75.05;30.15;;;6.50;99.90;;;;;;5105861;27;20065;-70
2022/01/12 00:19:06;;;;;;;89.88;30.27;;;5.60;99.90;;;;;;5122949;27;20049;-69
2022/01/12 00:21:32;;;;;;;71.75;28.75;;;5.70;99.90;;;;;;5122836;27;20395;-70
2022/01/12 00:23:57;;;;;;;67.65;26.38;;;6.40;99.90;;;;;;5105338;27;20087;-71
2022/01/12 00:34:28;;;;;;;65.78;25.50;;;6.70;99.90;;;;;;5119849;27;20079;-72
2022/01/12 00:36:54;;;;;;;70.13;24.95;;;7.00;99.90;;;;;;5124300;27;20039;-70
2022/01/12 00:39:20;;;;;;;82.60;27.15;;;5.80;99.90;;;;;;5125795;27;20586;-71
2022/01/12 00:41:46;;;;;;;85.47;29.55;;;6.50;99.90;;;;;;5109798;27;20575;-72
2022/01/12 00:44:21;;;;;;;70.75;25.88;;;6.50;99.90;;;;;;5115110;27;20042;-72
2022/01/12 00:46:47;;;;;;;63.92;24.85;;;6.70;99.90;;;;;;5099004;28;20038;-75
2022/01/12 00:49:13;;;;;;;74.55;24.88;;;6.50;99.90;;;;;;5125329;27;20034;-71
2022/01/12 00:51:39;;;;;;;65.72;23.33;;;5.90;99.90;;;;;;5080814;27;20126;-73
2022/01/12 00:54:08;;;;;;;76.95;24.05;;;6.20;99.90;;;;;;5113038;27;20038;-72
2022/01/12 00:56:34;;;;;;;77.45;26.38;;;6.90;99.90;;;;;;5114713;27;20483;-73
2022/01/12 00:59:00;;;;;;;75.35;25.90;;;5.70;99.90;;;;;;5129175;27;20035;-72
2022/01/12 01:01:27;;;;;;;64.15;23.17;;;6.00;99.90;;;;;;5091493;28;20390;-73
2022/01/12 01:03:54;;;;;;;79.20;25.67;;;5.90;99.90;;;;;;5112689;27;20122;-73
2022/01/12 01:06:21;;;;;;;70.80;23.58;;;6.20;99.90;;;;;;5111045;27;20078;-73
2022/01/12 01:08:51;;;;;;;84.25;24.92;;;7.00;99.90;;;;;;5130737;27;20115;-73
2022/01/12 01:11:18;;;;;;;84.97;23.05;;;6.10;99.90;;;;;;5112497;27;20166;-73
2022/01/12 01:13:55;;;;;;;84.57;24.63;;;7.00;99.90;;;;;;5128921;27;20058;-73
2022/01/12 01:16:30;;;;;;;83.15;24.00;;;6.60;99.90;;;;;;5113187;27;20050;-73
2022/01/12 01:27:17;;;;;;;73.63;23.20;;;6.00;99.90;;;;;;5114258;27;20058;-72
2022/01/12 01:29:43;;;;;;;88.05;23.70;;;6.10;99.90;;;;;;5118896;27;20039;-72
2022/01/12 01:32:09;;;;;;;115.22;26.77;;;6.10;99.90;;;;;;5135561;27;20034;-72
2022/01/12 01:34:42;;;;;;;120.18;26.70;;;6.90;99.90;;;;;;5132743;27;20035;-72
2022/01/12 01:37:08;;;;;;;116.13;27.20;;;7.00;99.90;;;;;;5124278;27;20076;-73
2022/01/12 01:39:33;;;;;;;112.97;26.25;;;7.10;99.90;;;;;;5119005;27;20046;-73
2022/01/12 01:42:05;;;;;;;114.72;26.13;;;7.10;99.90;;;;;;5121951;27;20498;-73
2022/01/12 01:55:13;;;;;;;135.57;25.20;;;6.10;99.90;;;;;;5132240;27;20049;-74
2022/01/12 01:57:40;;;;;;;116.63;25.65;;;6.40;99.90;;;;;;5136691;27;20050;-73
2022/01/12 02:00:09;;;;;;;116.22;23.75;;;6.90;99.90;;;;;;5106757;27;20031;-74
2022/01/12 02:02:35;;;;;;;117.93;24.75;;;7.40;99.90;;;;;;5133526;27;20043;-74
2022/01/12 02:05:01;;;;;;;97.72;24.75;;;6.60;99.90;;;;;;5115241;27;20042;-74
2022/01/12 02:07:27;;;;;;;140.25;26.33;;;6.70;99.90;;;;;;5134065;27;20037;-74
2022/01/12 02:09:53;;;;;;;135.85;28.40;;;7.50;99.90;;;;;;5117392;27;20038;-73
2022/01/12 02:12:30;;;;;;;96.05;25.20;;;7.20;99.90;;;;;;5134651;27;20062;-73
2022/01/12 02:14:57;;;;;;;103.90;24.42;;;6.30;99.90;;;;;;5115250;27;20108;-73
2022/01/12 02:17:29;;;;;;;93.47;24.90;;;7.20;99.90;;;;;;5115258;27;20078;-74
2022/01/12 02:36:32;;;;;;;66.93;22.88;;;7.50;99.90;;;;;;5132223;27;20110;-74
2022/01/12 02:41:43;;;;;;;69.95;21.30;;;6.50;99.90;;;;;;5133967;27;20127;-74
2022/01/12 02:54:42;;;;;;;88.65;22.98;;;7.20;99.90;;;;;;5118254;27;20073;-74
2022/01/12 02:57:08;;;;;;;81.28;23.73;;;7.50;99.90;;;;;;5114506;27;20044;-73
2022/01/12 02:59:34;;;;;;;75.60;22.48;;;7.30;99.90;;;;;;5111349;27;20034;-72
2022/01/12 03:02:51;;;;;;;80.05;22.80;;;6.50;99.90;;;;;;5116787;27;20041;-72
2022/01/12 03:07:40;;;;;;;83.15;25.13;;;7.50;99.90;;;;;;5116863;27;20378;-73
2022/01/12 03:10:08;;;;;;;75.50;22.77;;;6.70;99.90;;;;;;5132132;27;20118;-73
2022/01/12 03:12:39;;;;;;;71.13;22.67;;;7.10;99.90;;;;;;5134029;27;20194;-74
2022/01/12 03:15:05;;;;;;;101.93;24.15;;;7.00;99.90;;;;;;5133688;27;20038;-74
2022/01/12 03:17:31;;;;;;;126.13;26.88;;;7.00;99.90;;;;;;5134667;27;20045;-74
2022/01/12 03:19:57;;;;;;;113.20;26.73;;;6.20;99.90;;;;;;5133421;27;20042;-73
2022/01/12 03:22:23;;;;;;;211.18;29.38;;;6.60;99.90;;;;;;5133920;27;20698;-73
2022/01/12 03:24:48;;;;;;;328.00;34.55;;;6.30;99.90;;;;;;5112983;27;20084;-73
2022/01/12 03:27:16;;;;;;;348.83;31.33;;;6.10;99.90;;;;;;5099491;27;20042;-73
2022/01/12 03:29:43;;;;;;;372.70;33.83;;;6.80;99.90;;;;;;5128118;27;20103;-73
2022/01/12 03:32:11;;;;;;;349.13;28.33;;;7.00;99.90;;;;;;5133350;27;20053;-73
2022/01/12 03:34:41;;;;;;;351.58;31.25;;;6.80;99.90;;;;;;5133110;27;20081;-73
2022/01/12 03:39:51;;;;;;;372.20;32.03;;;6.90;99.90;;;;;;5128437;27;20049;-73
2022/01/12 03:42:19;;;;;;;204.80;23.40;;;6.10;99.90;;;;;;5099996;27;20560;-72
2022/01/12 03:44:44;;;;;;;284.80;26.85;;;5.80;99.90;;;;;;5114428;27;20050;-73
2022/01/12 03:47:10;;;;;;;317.13;28.60;;;6.10;99.90;;;;;;5114697;27;20023;-74
2022/01/12 03:49:36;;;;;;;177.52;20.77;;;6.30;99.90;;;;;;5081346;27;20039;-73
2022/01/12 03:52:03;;;;;;;217.93;22.95;;;6.10;99.90;;;;;;5132278;27;20111;-73
2022/01/12 03:54:28;;;;;;;218.82;25.33;;;6.40;99.90;;;;;;5116288;27;20810;-73
2022/01/12 03:56:55;;;;;;;255.65;25.25;;;5.60;99.90;;;;;;5132326;27;20062;-73
2022/01/12 03:59:20;;;;;;;204.38;23.00;;;6.30;99.90;;;;;;5098477;27;20039;-73
2022/01/12 04:01:46;;;;;;;228.48;23.08;;;5.60;99.90;;;;;;5114855;27;20039;-74
2022/01/12 04:04:20;;;;;;;204.05;22.70;;;6.30;99.90;;;;;;5113810;27;20042;-74
2022/01/12 04:09:30;;;;;;;144.35;18.77;;;6.10;99.90;;;;;;5085734;27;20570;-73
2022/01/12 04:11:56;;;;;;;200.63;23.77;;;6.10;99.90;;;;;;5096605;27;20047;-73
2022/01/12 04:14:21;;;;;;;173.07;22.35;;;5.70;99.90;;;;;;5113114;27;20090;-73
2022/01/12 04:16:47;;;;;;;215.75;27.20;;;6.10;99.90;;;;;;5131472;27;20039;-73
2022/01/12 04:19:13;;;;;;;187.10;22.15;;;6.40;99.90;;;;;;5112992;27;20042;-74
2022/01/12 04:21:45;;;;;;;190.48;23.08;;;5.70;99.90;;;;;;5130266;27;20046;-74
2022/01/12 04:24:11;;;;;;;174.38;21.73;;;6.30;99.90;;;;;;5098169;27;20120;-73
2022/01/12 04:26:37;;;;;;;178.07;22.67;;;5.70;99.90;;;;;;5131148;27;20062;-74
2022/01/12 04:29:04;;;;;;;220.73;22.75;;;5.80;99.90;;;;;;5132860;27;20031;-74
2022/01/12 04:31:29;;;;;;;206.57;23.02;;;6.50;99.90;;;;;;5094158;27;20039;-74
2022/01/12 04:33:55;;;;;;;204.63;22.02;;;5.60;99.90;;;;;;5129400;27;20047;-73
2022/01/12 04:36:21;;;;;;;162.85;21.00;;;6.40;99.90;;;;;;5111359;27;20603;-74
2022/01/12 04:38:46;;;;;;;186.00;22.90;;;5.50;99.90;;;;;;5132153;27;20398;-74
2022/01/12 04:41:13;;;;;;;146.45;19.88;;;5.70;99.90;;;;;;5113653;27;20037;-74
2022/01/12 04:43:42;;;;;;;139.13;19.95;;;6.10;99.90;;;;;;5089948;27;20092;-74
2022/01/12 04:46:21;;;;;;;177.10;23.05;;;5.70;99.90;;;;;;5133054;27;20070;-73
2022/01/12 04:51:33;;;;;;;167.05;22.67;;;5.70;99.90;;;;;;5127438;27;20038;-73
2022/01/12 04:53:59;;;;;;;122.30;22.38;;;5.80;99.90;;;;;;5110953;27;20083;-73
2022/01/12 04:56:28;;;;;;;136.68;20.73;;;5.10;99.90;;;;;;5114766;27;20129;-73
2022/01/12 04:58:54;;;;;;;90.15;16.83;;;6.50;99.90;;;;;;5129909;27;20080;-74
2022/01/12 05:01:28;;;;;;;119.97;18.48;;;5.40;99.90;;;;;;5096893;27;20131;-73
2022/01/12 05:09:14;;;;;;;61.50;16.25;;;6.00;99.90;;;;;;5134710;27;20043;-73
2022/01/12 05:14:25;;;;;;;76.22;18.73;;;5.40;99.90;;;;;;5135299;27;20050;-73
2022/01/12 05:16:52;;;;;;;84.75;18.55;;;5.40;99.90;;;;;;5118363;27;20038;-73
2022/01/12 05:19:18;;;;;;;94.35;18.20;;;5.50;99.90;;;;;;5133938;27;20046;-73
2022/01/12 05:21:43;;;;;;;148.93;20.92;;;5.70;99.90;;;;;;5133802;27;20039;-73
2022/01/12 05:24:10;;;;;;;138.23;19.90;;;5.60;99.90;;;;;;5119215;27;20134;-74
2022/01/12 05:26:36;;;;;;;160.18;20.05;;;5.80;99.90;;;;;;5136175;27;20087;-74
2022/01/12 05:29:04;;;;;;;137.07;18.13;;;5.80;99.90;;;;;;5135712;27;20035;-73
2022/01/12 05:31:30;;;;;;;171.65;20.55;;;5.70;99.90;;;;;;5118085;27;20035;-74
2022/01/12 05:33:59;;;;;;;114.82;16.20;;;5.70;99.90;;;;;;5131622;27;20035;-75
2022/01/12 05:36:25;;;;;;;98.50;15.80;;;4.90;99.90;;;;;;5118016;27;20042;-72
2022/01/12 05:38:51;;;;;;;143.63;18.55;;;5.80;99.90;;;;;;5118772;27;20087;-73
2022/01/12 05:41:17;;;;;;;119.25;17.00;;;5.00;99.90;;;;;;5136018;27;20043;-74
2022/01/12 05:43:45;;;;;;;90.57;17.08;;;4.90;99.90;;;;;;5135081;27;20055;-74
2022/01/12 05:46:13;;;;;;;85.55;15.15;;;4.90;99.90;;;;;;5134897;27;20047;-74
2022/01/12 05:51:26;;;;;;;87.72;15.82;;;4.70;99.90;;;;;;5127133;27;20376;-73
2022/01/12 05:53:51;;;;;;;90.93;15.80;;;5.30;99.90;;;;;;5115640;27;20039;-73
2022/01/12 05:56:18;;;;;;;79.32;16.08;;;4.60;99.90;;;;;;5133922;27;20041;-73
2022/01/12 05:58:43;;;;;;;83.68;14.75;;;5.40;99.90;;;;;;5133980;27;20402;-73
2022/01/12 06:01:09;;;;;;;104.63;16.40;;;5.20;99.90;;;;;;5149473;27;20043;-73
2022/01/12 06:03:35;;;;;;;74.72;14.45;;;5.40;99.90;;;;;;5115453;27;20042;-73
2022/01/12 06:06:01;;;;;;;72.10;13.18;;;4.30;99.90;;;;;;5134270;27;20046;-73
2022/01/12 06:08:27;;;;;;;80.45;14.05;;;5.20;99.90;;;;;;5113340;27;20356;-73
2022/01/12 06:10:52;;;;;;;62.85;14.02;;;5.00;99.90;;;;;;5133225;27;20475;-73
2022/01/12 06:13:18;;;;;;;61.08;13.30;;;4.70;99.90;;;;;;5133901;27;20051;-72
2022/01/12 06:15:44;;;;;;;65.25;14.43;;;5.30;99.90;;;;;;5116511;27;20053;-73
2022/01/12 06:18:09;;;;;;;45.05;12.77;;;3.90;99.90;;;;;;5116712;27;20125;-74
2022/01/12 06:20:35;;;;;;;53.38;12.40;;;4.60;99.90;;;;;;5116297;27;20038;-73
2022/01/12 06:23:01;;;;;;;52.88;12.65;;;3.90;99.90;;;;;;5113933;28;20039;-73
2022/01/12 06:25:27;;;;;;;68.32;14.45;;;3.70;99.90;;;;;;5079937;28;20046;-73
2022/01/12 06:27:57;;;;;;;50.78;11.95;;;3.80;99.90;;;;;;5114244;27;20043;-73
2022/01/12 06:32:52;;;;;;;48.50;11.88;;;3.70;99.90;;;;;;5133853;27;20539;-74
2022/01/12 06:35:18;;;;;;;34.15;11.38;;;4.60;99.90;;;;;;5114787;27;20867;-73
2022/01/12 06:37:44;;;;;;;40.25;11.82;;;3.90;99.90;;;;;;5100799;27;20103;-74
2022/01/12 06:40:11;;;;;;;45.50;11.07;;;4.60;99.90;;;;;;5117486;27;20063;-72
2022/01/12 06:42:37;;;;;;;60.17;13.60;;;3.80;99.90;;;;;;5117835;27;20045;-73
2022/01/12 06:45:03;;;;;;;72.55;13.95;;;4.60;99.90;;;;;;5117052;27;20039;-73
2022/01/12 06:47:29;;;;;;;63.40;14.25;;;4.10;99.90;;;;;;5105154;27;20038;-72
2022/01/12 06:49:55;;;;;;;63.35;13.57;;;4.40;99.90;;;;;;5135293;27;20049;-72
2022/01/12 06:52:20;;;;;;;126.93;19.58;;;4.00;99.90;;;;;;5109462;27;20045;-72
2022/01/12 06:54:46;;;;;;;64.85;15.15;;;4.10;99.90;;;;;;5133987;27;20046;-72
2022/01/12 06:57:12;;;;;;;62.80;13.38;;;4.40;99.90;;;;;;5117728;27;20076;-73
2022/01/12 06:59:37;;;;;;;72.07;15.52;;;4.20;99.90;;;;;;5134542;27;20046;-73
2022/01/12 07:02:04;;;;;;;62.40;14.25;;;4.70;99.90;;;;;;5135156;27;20133;-72
2022/01/12 07:04:30;;;;;;;49.25;12.88;;;4.90;99.90;;;;;;5133451;27;20056;-73
2022/01/12 07:06:56;;;;;;;47.63;12.98;;;3.90;99.90;;;;;;5117824;27;20381;-72
2022/01/12 07:09:21;;;;;;;49.03;13.13;;;4.70;99.90;;;;;;5134587;27;20030;-72
2022/01/12 07:11:48;;;;;;;56.95;13.10;;;4.40;99.90;;;;;;5078581;27;1089210;-73
2022/01/12 07:14:14;;;;;;;51.90;13.38;;;4.00;99.90;;;;;;5084624;27;20055;-72
2022/01/12 07:16:40;;;;;;;71.47;13.00;;;4.50;99.90;;;;;;5096432;27;20047;-73
2022/01/12 07:19:05;;;;;;;56.97;12.68;;;4.50;99.90;;;;;;5107125;27;20102;-74
2022/01/12 07:21:31;;;;;;;50.03;13.85;;;4.40;99.90;;;;;;5114926;27;20384;-73
2022/01/12 07:23:57;;;;;;;52.58;10.65;;;4.60;99.90;;;;;;5114133;27;20039;-73
2022/01/12 07:26:24;;;;;;;71.97;11.70;;;4.40;99.90;;;;;;5134530;27;20054;-73
2022/01/12 07:28:50;;;;;;;56.92;11.95;;;4.60;99.90;;;;;;5134548;27;20035;-74
2022/01/12 07:31:16;;;;;;;60.20;11.63;;;4.40;99.90;;;;;;5134975;27;20039;-73
2022/01/12 07:33:41;;;;;;;80.03;12.40;;;4.00;99.90;;;;;;5134701;27;20053;-74
2022/01/12 07:36:07;;;;;;;59.20;11.40;;;4.80;99.90;;;;;;5135098;27;20064;-74
2022/01/12 07:38:33;;;;;;;54.75;10.65;;;4.70;99.90;;;;;;5117104;27;20377;-73
2022/01/12 07:40:59;;;;;;;49.03;10.63;;;4.70;99.90;;;;;;5112554;27;20511;-74
2022/01/12 07:43:25;;;;;;;41.33;10.30;;;4.60;99.90;;;;;;5117725;27;20127;-72
2022/01/12 07:45:51;;;;;;;39.60;10.82;;;4.00;99.90;;;;;;5117452;27;20088;-72
2022/01/12 07:48:16;;;;;;;43.97;11.13;;;3.90;99.90;;;;;;5134231;27;20053;-72
2022/01/12 07:50:44;;;;;;;51.58;13.18;;;4.70;99.90;;;;;;5133993;27;20125;-72
2022/01/12 07:53:10;;;;;;;35.38;11.35;;;4.40;99.90;;;;;;5133973;27;20053;-72
2022/01/12 07:55:36;;;;;;;35.22;11.98;;;4.20;99.90;;;;;;5134355;27;20046;-73
2022/01/12 07:58:02;;;;;;;37.63;11.75;;;5.00;99.90;;;;;;5124962;27;20436;-73
2022/01/12 08:00:28;;;;;;;39.67;11.82;;;4.50;99.90;;;;;;5116759;27;20465;-72
2022/01/12 08:02:54;;;;;;;38.47;11.70;;;4.10;99.90;;;;;;5117472;27;20039;-72
2022/01/12 08:05:20;;;;;;;31.52;12.13;;;3.90;99.90;;;;;;5117172;27;20042;-72
2022/01/12 08:07:48;;;;;;;33.70;12.88;;;3.90;99.90;;;;;;5095349;27;20035;-71
2022/01/12 08:10:15;;;;;;;31.25;12.20;;;4.20;99.90;;;;;;5090839;27;20045;-72
2022/01/12 08:12:41;;;;;;;49.47;13.95;;;3.80;99.90;;;;;;5116585;27;20479;-71
2022/01/12 08:15:09;;;;;;;28.38;11.70;;;4.50;99.90;;;;;;5134542;27;20039;-70
2022/01/12 08:17:36;;;;;;;29.13;11.20;;;4.00;99.90;;;;;;5133370;27;20046;-71
2022/01/12 08:20:11;;;;;;;46.47;12.63;;;4.20;99.90;;;;;;5115514;27;20031;-71
2022/01/12 08:22:37;;;;;;;34.00;10.73;;;3.90;99.90;;;;;;5115294;27;20102;-72
2022/01/12 08:25:04;;;;;;;29.60;10.32;;;3.90;99.90;;;;;;5132935;27;20038;-73
2022/01/12 08:27:29;;;;;;;50.60;13.93;;;4.50;99.90;;;;;;5132423;27;20085;-72
2022/01/12 08:30:00;;;;;;;43.63;12.48;;;4.20;99.90;;;;;;5085774;27;20478;-71
2022/01/12 08:32:29;;;;;;;48.63;12.32;;;3.90;99.90;;;;;;5116471;27;21033;-72
2022/01/12 08:34:56;;;;;;;40.83;11.38;;;4.80;99.90;;;;;;5133010;27;20397;-71
2022/01/12 08:37:22;;;;;;;50.25;11.90;;;4.70;99.90;;;;;;5132402;27;20042;-71
2022/01/12 08:39:48;;;;;;;49.67;13.80;;;4.50;99.90;;;;;;5097923;27;20130;-72
2022/01/12 08:42:14;;;;;;;43.88;13.05;;;4.00;99.90;;;;;;5114444;27;20121;-71
2022/01/12 08:44:40;;;;;;;48.33;13.35;;;4.10;99.90;;;;;;5132186;27;20050;-72
2022/01/12 08:47:06;;;;;;;49.72;10.63;;;4.10;99.90;;;;;;5132475;27;20031;-70
2022/01/12 08:49:32;;;;;;;60.97;12.98;;;4.20;99.90;;;;;;5132154;27;20117;-73
2022/01/12 08:51:57;;;;;;;49.05;9.82;;;4.80;99.90;;;;;;5114760;27;20195;-70
2022/01/12 08:54:23;;;;;;;35.08;9.65;;;4.40;99.90;;;;;;5114989;27;20121;-72
2022/01/12 08:56:49;;;;;;;35.83;11.15;;;4.70;99.90;;;;;;5131964;27;20074;-71
2022/01/12 08:59:15;;;;;;;33.85;10.02;;;5.00;99.90;;;;;;5114946;27;20034;-70
2022/01/12 09:01:41;;;;;;;34.72;8.98;;;5.00;99.90;;;;;;5132142;27;20053;-71
2022/01/12 09:04:07;;;;;;;30.95;7.90;;;4.50;99.90;;;;;;5115304;27;20039;-71
2022/01/12 09:06:33;;;;;;;47.47;11.23;;;5.00;99.90;;;;;;5081078;28;20041;-72
2022/01/12 09:08:58;;;;;;;44.15;11.05;;;4.30;99.90;;;;;;5094844;28;20047;-71
2022/01/12 09:11:25;;;;;;;34.13;9.75;;;5.10;99.90;;;;;;5128058;27;20066;-71
2022/01/12 09:13:51;;;;;;;20.70;8.35;;;4.40;99.90;;;;;;5131931;27;20073;-71
2022/01/12 09:16:16;;;;;;;30.20;9.27;;;5.20;99.90;;;;;;5106944;27;20763;-72
2022/01/12 09:18:43;;;;;;;31.95;7.93;;;4.40;99.90;;;;;;5119987;27;20043;-72
2022/01/12 09:21:10;;;;;;;40.13;10.27;;;4.40;99.90;;;;;;5108204;27;20039;-70
2022/01/12 09:23:36;;;;;;;24.58;9.15;;;5.30;99.90;;;;;;5125883;27;20042;-72
2022/01/12 09:26:03;;;;;;;42.13;12.25;;;4.60;99.90;;;;;;5109539;27;21108;-71
2022/01/12 09:28:30;;;;;;;61.65;12.80;;;4.50;99.90;;;;;;5108685;27;20038;-73
2022/01/12 09:30:56;;;;;;;45.92;11.18;;;5.10;99.90;;;;;;5125151;27;20502;-73
2022/01/12 09:33:22;;;;;;;57.88;12.00;;;5.60;99.90;;;;;;5126245;27;20079;-71
2022/01/12 09:35:49;;;;;;;32.95;8.93;;;4.80;99.90;;;;;;5124807;27;20175;-73
2022/01/12 09:38:18;;;;;;;52.20;10.32;;;5.60;99.90;;;;;;5108040;27;20049;-71
2022/01/12 09:40:45;;;;;;;39.58;11.05;;;5.90;99.90;;;;;;5125014;27;20195;-70
2022/01/12 09:43:11;;;;;;;45.30;11.00;;;5.90;99.90;;;;;;5108733;27;20130;-71
2022/01/12 09:45:39;;;;;;;55.60;11.48;;;5.30;99.90;;;;;;5125585;27;20505;-73
2022/01/12 09:48:09;;;;;;;39.53;9.52;;;5.30;99.90;;;;;;5095954;27;20093;-72
2022/01/12 09:50:35;;;;;;;37.70;9.10;;;5.40;99.90;;;;;;5129844;27;20034;-70
2022/01/12 09:53:01;;;;;;;31.38;7.88;;;6.10;99.90;;;;;;5077962;27;20114;-72
2022/01/12 09:55:26;;;;;;;35.50;8.57;;;5.50;99.90;;;;;;5092856;27;20043;-74
2022/01/12 09:57:52;;;;;;;35.65;8.82;;;5.30;99.90;;;;;;5075217;27;20553;-71
2022/01/12 10:00:23;;;;;;;38.80;8.45;;;6.40;99.90;;;;;;5111354;27;20047;-72
2022/01/12 10:02:49;;;;;;;39.90;8.38;;;6.30;99.90;;;;;;5129238;27;20046;-72
2022/01/12 10:05:16;;;;;;;39.80;8.73;;;5.50;99.90;;;;;;5112986;27;20042;-72
2022/01/12 10:07:42;;;;;;;38.92;8.23;;;7.00;99.90;;;;;;5111602;27;20046;-74
2022/01/12 10:10:14;;;;;;;47.67;9.27;;;7.60;99.90;;;;;;5095435;27;20046;-73
2022/01/12 10:12:51;;;;;;;45.25;8.77;;;5.90;99.90;;;;;;5124993;27;20543;-70
2022/01/12 10:15:16;;;;;;;48.33;7.82;;;6.40;99.90;;;;;;5126113;27;20505;-72
2022/01/12 10:17:47;;;;;;;50.50;8.68;;;6.70;99.90;;;;;;5105557;28;20116;-70
2022/01/12 10:20:14;;;;;;;44.47;7.00;;;6.70;99.90;;;;;;5105821;28;20047;-70
2022/01/12 10:22:55;;;;;;;31.60;7.10;;;6.10;99.90;;;;;;5103486;27;20047;-71
2022/01/12 10:25:22;;;;;;;47.80;7.57;;;6.50;99.90;;;;;;5108503;27;20867;-74
2022/01/12 10:27:48;;;;;;;53.50;8.77;;;6.30;99.90;;;;;;5108228;27;20043;-71
2022/01/12 10:30:28;;;;;;;56.92;8.63;;;7.00;99.90;;;;;;5123558;27;20035;-71
2022/01/12 10:33:06;;;;;;;43.90;8.25;;;7.20;99.90;;;;;;5123869;27;20046;-71
2022/01/12 10:35:34;;;;;;;35.30;7.15;;;6.30;99.90;;;;;;5123984;27;20046;-71
2022/01/12 10:38:16;;;;;;;48.10;9.68;;;6.60;99.90;;;;;;5105462;27;20044;-71
2022/01/12 10:40:55;;;;;;;61.05;7.80;;;7.20;99.90;;;;;;5088028;28;20036;-70
2022/01/12 10:43:45;;;;;;;51.67;8.32;;;7.50;99.90;;;;;;5119774;27;20078;-70
2022/01/12 10:46:20;;;;;;;44.40;7.45;;;7.30;99.90;;;;;;5125578;27;20043;-72
2022/01/12 10:48:53;;;;;;;;;;;7.60;99.90;;;;;;5125725;27;20126;-72
2022/01/12 10:51:20;;;;;;;55.88;7.50;;;6.50;99.90;;;;;;5108772;27;20009;-73
2022/01/12 10:53:50;;;;;;;45.63;7.80;;;7.50;99.90;;;;;;5124855;27;20111;-72
2022/01/12 10:56:19;;;;;;;65.07;8.02;;;6.70;99.90;;;;;;5125561;27;20546;-70
2022/01/12 10:58:47;;;;;;;45.67;7.65;;;7.10;99.90;;;;;;5123833;27;20042;-72
2022/01/12 11:01:15;;;;;;;57.15;6.75;;;7.00;99.90;;;;;;5108955;27;20914;-72
2022/01/12 11:03:41;;;;;;;41.33;6.97;;;6.70;99.90;;;;;;5104917;28;20046;-73
2022/01/12 11:06:09;;;;;;;34.78;7.68;;;6.90;99.90;;;;;;5087499;28;20886;-71
2022/01/12 11:08:36;;;;;;;48.92;7.95;;;8.10;99.90;;;;;;5081888;27;20129;-72
2022/01/12 11:11:03;;;;;;;29.85;7.10;;;6.90;99.90;;;;;;5124820;27;20035;-73
2022/01/12 11:13:31;;;;;;;84.32;8.73;;;8.20;99.90;;;;;;5124869;27;20058;-72
2022/01/12 11:15:57;;;;;;;39.50;6.97;;;7.90;99.90;;;;;;5107350;27;20043;-73
2022/01/12 11:18:27;;;;;;;41.60;7.20;;;8.10;99.90;;;;;;5114037;27;20087;-73
2022/01/12 11:20:58;;;;;;;37.78;7.95;;;7.80;99.90;;;;;;5121403;27;20734;-71
2022/01/12 11:23:37;;;;;;;30.27;7.68;;;7.80;99.90;;;;;;5121830;27;20050;-74
2022/01/12 11:26:38;;;;;;;33.83;7.85;;;8.60;99.90;;;;;;5107995;27;20046;-74
2022/01/12 11:29:04;;;;;;;30.95;8.40;;;7.30;99.90;;;;;;5119622;27;20049;-74
2022/01/12 11:31:35;;;;;;;46.65;10.00;;;8.80;99.90;;;;;;5113883;27;20476;-74
2022/01/12 11:34:01;;;;;;;37.97;9.60;;;8.30;99.90;;;;;;5114364;27;20498;-73
2022/01/12 11:36:38;;;;;;;26.33;7.65;;;8.80;99.90;;;;;;5106648;27;20050;-74
2022/01/12 11:39:10;;;;;;;15.02;6.40;;;8.80;99.90;;;;;;5125055;27;20043;-73
2022/01/12 11:41:39;;;;;;;15.95;6.78;;;8.00;99.90;;;;;;5125051;27;20439;-72
2022/01/12 11:44:12;;;;;;;17.52;6.57;;;9.10;99.90;;;;;;5124228;27;20113;-73
2022/01/12 11:46:50;;;;;;;20.63;7.38;;;8.60;99.90;;;;;;5123501;27;20108;-71
2022/01/12 11:49:24;;;;;;;26.02;7.40;;;9.00;99.90;;;;;;5106979;27;20050;-72
2022/01/12 11:51:50;;;;;;;;;;;8.10;99.90;;;;;;5106896;27;20432;-71
2022/01/12 11:54:19;;;;;;;30.17;10.07;;;9.00;99.90;;;;;;5123671;27;19919;-72
2022/01/12 11:57:02;;;;;;;34.28;10.18;;;9.20;99.90;;;;;;5119076;27;20063;-72
2022/01/12 11:59:30;;;;;;;20.85;8.13;;;9.10;99.90;;;;;;5106957;27;20047;-73
2022/01/12 12:02:11;;;;;;;21.92;8.05;;;8.00;99.90;;;;;;5104432;27;20134;-72
2022/01/12 12:04:37;;;;;;;27.77;9.20;;;9.00;99.90;;;;;;5121264;27;20043;-72
2022/01/12 12:07:13;;;;;;;28.67;9.85;;;9.50;99.90;;;;;;5123403;27;20057;-73
2022/01/12 12:09:53;;;;;;;28.95;9.90;;;8.70;99.90;;;;;;5107320;27;20043;-71
2022/01/12 12:12:24;;;;;;;24.38;8.57;;;8.50;99.90;;;;;;5107437;27;20059;-71
2022/01/12 12:14:55;;;;;;;21.80;7.82;;;7.90;99.90;;;;;;5120290;27;20042;-73
2022/01/12 12:17:22;;;;;;;21.90;8.20;;;9.20;99.90;;;;;;5124042;27;20046;-73
2022/01/12 12:19:49;;;;;;;40.78;8.73;;;8.20;99.90;;;;;;5107280;27;20133;-72
2022/01/12 12:22:26;;;;;;;42.53;8.30;;;8.50;99.90;;;;;;5095590;28;20074;-72
2022/01/12 12:25:06;;;;;;;31.38;8.73;;;8.00;99.90;;;;;;5102978;28;20052;-72
2022/01/12 12:27:34;;;;;;;28.13;7.95;;;9.50;99.90;;;;;;5116824;27;20031;-71
2022/01/12 12:30:01;;;;;;;27.30;8.82;;;8.10;99.90;;;;;;5122792;27;20128;-72
2022/01/12 12:32:36;;;;;;;26.77;8.55;;;9.30;99.90;;;;;;5122640;27;20043;-72
2022/01/12 12:35:07;;;;;;;28.52;8.40;;;8.30;99.90;;;;;;5122460;27;20051;-71
2022/01/12 12:37:42;;;;;;;24.55;8.85;;;9.70;99.90;;;;;;5123273;27;20100;-71
2022/01/12 12:40:22;;;;;;;28.30;8.77;;;8.90;99.90;;;;;;5122283;27;20042;-74
2022/01/12 12:42:58;;;;;;;26.73;8.55;;;8.20;99.90;;;;;;5121863;27;20039;-71
2022/01/12 12:45:40;;;;;;;25.17;9.52;;;9.60;99.90;;;;;;5122476;27;20825;-71
2022/01/12 12:48:08;;;;;;;32.15;9.98;;;8.30;99.90;;;;;;5122202;27;20057;-71
2022/01/12 12:50:33;;;;;;;31.92;10.63;;;9.90;99.90;;;;;;5102461;28;20041;-71
2022/01/12 12:53:00;;;;;;;28.70;9.98;;;8.80;99.90;;;;;;5101500;28;20031;-72
2022/01/12 12:55:32;;;;;;;23.85;9.18;;;9.30;99.90;;;;;;5098343;28;20059;-70
2022/01/12 12:57:58;;;;;;;31.80;9.30;;;8.30;99.90;;;;;;5113515;28;20039;-71
2022/01/12 13:00:26;;;;;;;39.17;10.40;;;10.20;99.90;;;;;;5103053;28;20368;-70
2022/01/12 13:02:54;;;;;;;21.75;9.90;;;9.30;99.90;;;;;;5087137;28;20051;-71
2022/01/12 13:05:26;;;;;;;36.03;10.00;;;10.10;99.90;;;;;;5122770;28;20051;-71
2022/01/12 13:07:52;;;;;;;26.35;9.68;;;9.70;99.90;;;;;;5123062;28;20406;-71
2022/01/12 13:10:24;;;;;;;26.00;9.30;;;8.40;99.90;;;;;;5089401;28;20043;-72
2022/01/12 13:12:56;;;;;;;32.85;10.95;;;8.80;99.90;;;;;;5122952;28;20471;-72
2022/01/12 13:15:34;;;;;;;28.88;9.60;;;9.70;99.90;;;;;;5105723;28;20080;-70
2022/01/12 13:18:04;;;;;;;23.15;8.65;;;9.00;99.90;;;;;;5122204;28;20164;-72
2022/01/12 13:23:18;;;;;;;35.63;11.18;;;8.50;99.90;;;;;;5122872;27;20105;-71
2022/01/12 13:25:44;;;;;;;29.63;9.82;;;8.30;99.90;;;;;;5126487;27;20039;-71
2022/01/12 13:28:10;;;;;;;28.40;9.75;;;8.50;99.90;;;;;;5124760;27;20031;-72
2022/01/12 13:30:47;;;;;;;26.73;9.70;;;8.30;99.90;;;;;;5110449;27;20039;-71
2022/01/12 13:33:13;;;;;;;26.02;10.18;;;9.90;99.90;;;;;;5126964;27;20074;-70
2022/01/12 13:35:41;;;;;;;23.33;9.10;;;9.60;99.90;;;;;;5109268;27;20153;-70
2022/01/12 13:38:07;;;;;;;35.22;10.52;;;9.10;99.90;;;;;;5108799;27;20031;-71
2022/01/12 13:40:41;;;;;;;32.78;11.48;;;9.80;99.90;;;;;;5127520;27;20067;-72
2022/01/12 13:43:07;;;;;;;27.08;9.88;;;9.60;99.90;;;;;;5109438;27;20043;-73
2022/01/12 13:45:39;;;;;;;31.38;10.45;;;9.90;99.90;;;;;;5109855;27;20031;-70
2022/01/12 13:48:14;;;;;;;27.55;10.52;;;8.40;99.90;;;;;;5125270;27;20066;-72
2022/01/12 13:50:52;;;;;;;30.75;10.93;;;8.30;99.90;;;;;;5090032;28;20046;-71
2022/01/12 13:53:19;;;;;;;27.17;9.40;;;8.50;99.90;;;;;;5109565;27;20050;-71
2022/01/12 13:55:53;;;;;;;26.63;10.43;;;8.80;99.90;;;;;;5126772;27;20042;-74
2022/01/12 13:58:20;;;;;;;26.55;10.00;;;8.20;99.90;;;;;;5108487;27;20054;-72
2022/01/12 14:00:46;;;;;;;24.95;9.48;;;8.40;99.90;;;;;;5105739;28;20056;-71
2022/01/12 14:03:23;;;;;;;29.10;10.35;;;9.00;99.90;;;;;;5094735;27;20043;-72
2022/01/12 14:05:57;;;;;;;24.02;10.13;;;8.20;99.90;;;;;;5109961;27;20432;-72
2022/01/12 14:08:29;;;;;;;27.92;11.25;;;9.60;99.90;;;;;;5119984;27;20568;-70